sensor_id;sensor_type;location;lat;lon;timestamp;P1;durP1;ratioP1;P2;durP2;ratioP2
16147;SDS011;8179;59.364;18.018;2023-07-29T00:00:38;660.63;;;630.50;;
16147;SDS011;8179;59.364;18.018;2023-07-29T00:03:05;654.03;;;623.85;;
16147;SDS011;8179;59.364;18.018;2023-07-29T00:05:32;655.75;;;625.78;;
16147;SDS011;8179;59.364;18.018;2023-07-29T00:07:58;687.45;;;655.58;;
16147;SDS011;8179;59.364;18.018;2023-07-29T00:10:25;634.38;;;604.55;;
16147;SDS011;8179;59.364;18.018;2023-07-29T00:12:54;610.78;;;583.70;;
16147;SDS011;8179;59.364;18.018;2023-07-29T00:15:21;705.38;;;672.25;;
16147;SDS011;8179;59.364;18.018;2023-07-29T00:17:49;670.97;;;639.63;;
16147;SDS011;8179;59.364;18.018;2023-07-29T00:20:16;666.55;;;636.30;;
16147;SDS011;8179;59.364;18.018;2023-07-29T00:22:42;705.20;;;672.00;;
16147;SDS011;8179;59.364;18.018;2023-07-29T00:25:09;780.38;;;740.83;;
16147;SDS011;8179;59.364;18.018;2023-07-29T00:27:35;739.35;;;703.38;;
16147;SDS011;8179;59.364;18.018;2023-07-29T00:30:02;768.67;;;730.58;;
16147;SDS011;8179;59.364;18.018;2023-07-29T00:32:29;752.30;;;715.10;;
16147;SDS011;8179;59.364;18.018;2023-07-29T00:34:58;779.55;;;740.40;;
16147;SDS011;8179;59.364;18.018;2023-07-29T00:37:26;795.38;;;754.88;;
16147;SDS011;8179;59.364;18.018;2023-07-29T00:39:52;769.03;;;730.42;;
16147;SDS011;8179;59.364;18.018;2023-07-29T00:42:19;707.83;;;674.65;;
16147;SDS011;8179;59.364;18.018;2023-07-29T00:44:45;829.42;;;785.83;;
16147;SDS011;8179;59.364;18.018;2023-07-29T00:47:12;745.25;;;708.72;;
16147;SDS011;8179;59.364;18.018;2023-07-29T00:49:40;710.03;;;676.38;;
16147;SDS011;8179;59.364;18.018;2023-07-29T00:52:08;762.90;;;725.60;;
16147;SDS011;8179;59.364;18.018;2023-07-29T00:54:37;704.33;;;670.53;;
16147;SDS011;8179;59.364;18.018;2023-07-29T00:57:04;789.70;;;749.65;;
16147;SDS011;8179;59.364;18.018;2023-07-29T00:59:31;805.00;;;763.72;;
16147;SDS011;8179;59.364;18.018;2023-07-29T01:01:58;830.50;;;787.80;;
16147;SDS011;8179;59.364;18.018;2023-07-29T01:04:25;823.15;;;780.90;;
16147;SDS011;8179;59.364;18.018;2023-07-29T01:06:53;789.22;;;749.72;;
16147;SDS011;8179;59.364;18.018;2023-07-29T01:09:28;800.63;;;759.95;;
16147;SDS011;8179;59.364;18.018;2023-07-29T01:11:58;818.83;;;776.75;;
16147;SDS011;8179;59.364;18.018;2023-07-29T01:14:29;801.05;;;760.67;;
16147;SDS011;8179;59.364;18.018;2023-07-29T01:17:00;874.10;;;826.90;;
16147;SDS011;8179;59.364;18.018;2023-07-29T01:19:34;678.28;;;647.08;;
16147;SDS011;8179;59.364;18.018;2023-07-29T01:22:08;753.17;;;716.80;;
16147;SDS011;8179;59.364;18.018;2023-07-29T01:24:36;797.22;;;756.70;;
16147;SDS011;8179;59.364;18.018;2023-07-29T01:27:03;686.20;;;654.38;;
16147;SDS011;8179;59.364;18.018;2023-07-29T01:29:30;762.80;;;725.00;;
16147;SDS011;8179;59.364;18.018;2023-07-29T01:31:58;838.00;;;793.50;;
16147;SDS011;8179;59.364;18.018;2023-07-29T01:34:29;788.40;;;748.78;;
16147;SDS011;8179;59.364;18.018;2023-07-29T01:36:56;754.78;;;717.65;;
16147;SDS011;8179;59.364;18.018;2023-07-29T01:39:23;773.20;;;734.97;;
16147;SDS011;8179;59.364;18.018;2023-07-29T01:41:53;724.90;;;689.97;;
16147;SDS011;8179;59.364;18.018;2023-07-29T01:44:19;740.78;;;704.60;;
16147;SDS011;8179;59.364;18.018;2023-07-29T01:46:46;759.80;;;721.83;;
16147;SDS011;8179;59.364;18.018;2023-07-29T01:49:13;774.20;;;735.55;;
16147;SDS011;8179;59.364;18.018;2023-07-29T01:51:39;787.22;;;747.60;;
16147;SDS011;8179;59.364;18.018;2023-07-29T01:54:06;799.40;;;758.50;;
16147;SDS011;8179;59.364;18.018;2023-07-29T01:56:32;818.30;;;776.83;;
16147;SDS011;8179;59.364;18.018;2023-07-29T01:59:00;824.50;;;781.33;;
16147;SDS011;8179;59.364;18.018;2023-07-29T02:01:27;815.67;;;773.70;;
16147;SDS011;8179;59.364;18.018;2023-07-29T02:03:54;827.15;;;784.45;;
16147;SDS011;8179;59.364;18.018;2023-07-29T02:06:20;852.28;;;807.13;;
16147;SDS011;8179;59.364;18.018;2023-07-29T02:08:47;807.45;;;766.22;;
16147;SDS011;8179;59.364;18.018;2023-07-29T02:11:13;821.90;;;780.33;;
16147;SDS011;8179;59.364;18.018;2023-07-29T02:13:40;888.15;;;840.83;;
16147;SDS011;8179;59.364;18.018;2023-07-29T02:16:08;894.45;;;845.55;;
16147;SDS011;8179;59.364;18.018;2023-07-29T02:18:35;906.05;;;856.03;;
16147;SDS011;8179;59.364;18.018;2023-07-29T02:21:02;916.00;;;865.13;;
16147;SDS011;8179;59.364;18.018;2023-07-29T02:23:29;872.25;;;825.50;;
16147;SDS011;8179;59.364;18.018;2023-07-29T02:25:56;792.40;;;751.47;;
16147;SDS011;8179;59.364;18.018;2023-07-29T02:28:22;935.17;;;883.65;;
16147;SDS011;8179;59.364;18.018;2023-07-29T02:30:53;900.00;;;850.90;;
16147;SDS011;8179;59.364;18.018;2023-07-29T02:33:36;890.00;;;842.38;;
16147;SDS011;8179;59.364;18.018;2023-07-29T02:36:02;918.20;;;868.00;;
16147;SDS011;8179;59.364;18.018;2023-07-29T02:38:30;914.70;;;864.28;;
16147;SDS011;8179;59.364;18.018;2023-07-29T02:40:56;923.53;;;872.67;;
16147;SDS011;8179;59.364;18.018;2023-07-29T02:43:23;932.33;;;881.20;;
16147;SDS011;8179;59.364;18.018;2023-07-29T02:45:49;934.38;;;883.25;;
16147;SDS011;8179;59.364;18.018;2023-07-29T02:48:16;887.97;;;840.85;;
16147;SDS011;8179;59.364;18.018;2023-07-29T02:50:44;943.20;;;891.35;;
16147;SDS011;8179;59.364;18.018;2023-07-29T02:53:10;958.53;;;904.58;;
16147;SDS011;8179;59.364;18.018;2023-07-29T02:55:39;930.50;;;878.33;;
16147;SDS011;8179;59.364;18.018;2023-07-29T02:58:05;932.75;;;880.80;;
16147;SDS011;8179;59.364;18.018;2023-07-29T03:00:32;975.75;;;920.53;;
16147;SDS011;8179;59.364;18.018;2023-07-29T03:02:58;974.47;;;918.33;;
16147;SDS011;8179;59.364;18.018;2023-07-29T03:05:26;956.70;;;902.58;;
16147;SDS011;8179;59.364;18.018;2023-07-29T03:07:54;945.95;;;893.10;;
16147;SDS011;8179;59.364;18.018;2023-07-29T03:10:21;953.85;;;900.70;;
16147;SDS011;8179;59.364;18.018;2023-07-29T03:12:47;913.92;;;863.28;;
16147;SDS011;8179;59.364;18.018;2023-07-29T03:15:14;948.13;;;893.95;;
16147;SDS011;8179;59.364;18.018;2023-07-29T03:17:41;956.65;;;902.47;;
16147;SDS011;8179;59.364;18.018;2023-07-29T03:20:07;943.28;;;890.58;;
16147;SDS011;8179;59.364;18.018;2023-07-29T03:22:34;953.47;;;899.08;;
16147;SDS011;8179;59.364;18.018;2023-07-29T03:25:02;918.80;;;867.55;;
16147;SDS011;8179;59.364;18.018;2023-07-29T03:27:30;918.47;;;866.80;;
16147;SDS011;8179;59.364;18.018;2023-07-29T03:29:58;768.42;;;730.30;;
16147;SDS011;8179;59.364;18.018;2023-07-29T03:32:25;628.33;;;601.72;;
16147;SDS011;8179;59.364;18.018;2023-07-29T03:34:51;632.15;;;605.00;;
16147;SDS011;8179;59.364;18.018;2023-07-29T03:37:18;571.85;;;548.90;;
16147;SDS011;8179;59.364;18.018;2023-07-29T03:39:44;589.97;;;565.08;;
16147;SDS011;8179;59.364;18.018;2023-07-29T03:42:12;461.55;;;444.63;;
16147;SDS011;8179;59.364;18.018;2023-07-29T03:44:39;438.38;;;422.92;;
16147;SDS011;8179;59.364;18.018;2023-07-29T03:47:05;619.78;;;591.75;;
16147;SDS011;8179;59.364;18.018;2023-07-29T03:49:32;763.28;;;724.40;;
16147;SDS011;8179;59.364;18.018;2023-07-29T03:51:58;834.58;;;789.05;;
16147;SDS011;8179;59.364;18.018;2023-07-29T03:54:25;865.83;;;817.92;;
16147;SDS011;8179;59.364;18.018;2023-07-29T03:56:51;863.15;;;815.42;;
16147;SDS011;8179;59.364;18.018;2023-07-29T03:59:19;863.90;;;816.83;;
16147;SDS011;8179;59.364;18.018;2023-07-29T04:01:47;872.25;;;824.20;;
16147;SDS011;8179;59.364;18.018;2023-07-29T04:04:14;902.50;;;852.30;;
16147;SDS011;8179;59.364;18.018;2023-07-29T04:06:41;920.47;;;868.00;;
16147;SDS011;8179;59.364;18.018;2023-07-29T04:09:07;830.97;;;787.03;;
16147;SDS011;8179;59.364;18.018;2023-07-29T04:11:34;806.67;;;764.90;;
16147;SDS011;8179;59.364;18.018;2023-07-29T04:14:00;844.47;;;798.45;;
16147;SDS011;8179;59.364;18.018;2023-07-29T04:16:28;818.22;;;775.15;;
16147;SDS011;8179;59.364;18.018;2023-07-29T04:18:55;836.30;;;791.95;;
16147;SDS011;8179;59.364;18.018;2023-07-29T04:21:21;882.40;;;833.63;;
16147;SDS011;8179;59.364;18.018;2023-07-29T04:23:48;785.28;;;744.80;;
16147;SDS011;8179;59.364;18.018;2023-07-29T04:26:14;787.17;;;746.40;;
16147;SDS011;8179;59.364;18.018;2023-07-29T04:28:41;809.30;;;766.70;;
16147;SDS011;8179;59.364;18.018;2023-07-29T04:31:08;702.67;;;669.33;;
16147;SDS011;8179;59.364;18.018;2023-07-29T04:33:35;591.70;;;567.45;;
16147;SDS011;8179;59.364;18.018;2023-07-29T04:36:02;473.80;;;455.45;;
16147;SDS011;8179;59.364;18.018;2023-07-29T04:38:30;367.08;;;353.70;;
16147;SDS011;8179;59.364;18.018;2023-07-29T04:40:57;210.15;;;203.25;;
16147;SDS011;8179;59.364;18.018;2023-07-29T04:43:26;256.90;;;248.65;;
16147;SDS011;8179;59.364;18.018;2023-07-29T04:45:52;210.43;;;203.90;;
16147;SDS011;8179;59.364;18.018;2023-07-29T04:48:19;323.17;;;312.60;;
16147;SDS011;8179;59.364;18.018;2023-07-29T04:50:47;459.20;;;442.83;;
16147;SDS011;8179;59.364;18.018;2023-07-29T04:53:13;681.60;;;649.88;;
16147;SDS011;8179;59.364;18.018;2023-07-29T04:55:41;571.63;;;548.42;;
16147;SDS011;8179;59.364;18.018;2023-07-29T04:58:07;737.47;;;701.45;;
16147;SDS011;8179;59.364;18.018;2023-07-29T05:00:34;671.95;;;640.75;;
16147;SDS011;8179;59.364;18.018;2023-07-29T05:03:00;638.65;;;610.58;;
16147;SDS011;8179;59.364;18.018;2023-07-29T05:05:27;969.08;;;910.28;;
16147;SDS011;8179;59.364;18.018;2023-07-29T05:07:55;785.53;;;745.40;;
16147;SDS011;8179;59.364;18.018;2023-07-29T05:10:21;882.22;;;833.65;;
16147;SDS011;8179;59.364;18.018;2023-07-29T05:12:48;758.78;;;720.58;;
16147;SDS011;8179;59.364;18.018;2023-07-29T05:15:14;932.90;;;878.83;;
16147;SDS011;8179;59.364;18.018;2023-07-29T05:17:41;987.30;;;926.15;;
16147;SDS011;8179;59.364;18.018;2023-07-29T05:20:08;860.63;;;813.30;;
16147;SDS011;8179;59.364;18.018;2023-07-29T05:22:35;959.13;;;901.75;;
16147;SDS011;8179;59.364;18.018;2023-07-29T05:25:03;932.58;;;876.08;;
16147;SDS011;8179;59.364;18.018;2023-07-29T05:27:29;1028.28;;;963.15;;
16147;SDS011;8179;59.364;18.018;2023-07-29T05:29:56;991.85;;;928.17;;
16147;SDS011;8179;59.364;18.018;2023-07-29T05:32:22;797.40;;;755.40;;
16147;SDS011;8179;59.364;18.018;2023-07-29T05:34:49;983.70;;;924.67;;
16147;SDS011;8179;59.364;18.018;2023-07-29T05:37:15;1045.03;;;977.42;;
16147;SDS011;8179;59.364;18.018;2023-07-29T05:39:42;894.55;;;842.10;;
16147;SDS011;8179;59.364;18.018;2023-07-29T05:42:10;834.50;;;789.25;;
16147;SDS011;8179;59.364;18.018;2023-07-29T05:44:36;956.20;;;897.95;;
16147;SDS011;8179;59.364;18.018;2023-07-29T05:47:03;1004.28;;;942.50;;
16147;SDS011;8179;59.364;18.018;2023-07-29T05:49:30;861.70;;;813.15;;
16147;SDS011;8179;59.364;18.018;2023-07-29T05:51:56;937.63;;;882.65;;
16147;SDS011;8179;59.364;18.018;2023-07-29T05:54:23;1022.35;;;957.22;;
16147;SDS011;8179;59.364;18.018;2023-07-29T05:56:49;803.40;;;759.83;;
16147;SDS011;8179;59.364;18.018;2023-07-29T05:59:18;871.03;;;818.50;;
16147;SDS011;8179;59.364;18.018;2023-07-29T06:01:44;961.97;;;901.25;;
16147;SDS011;8179;59.364;18.018;2023-07-29T06:04:11;956.13;;;898.85;;
16147;SDS011;8179;59.364;18.018;2023-07-29T06:06:37;949.72;;;892.10;;
16147;SDS011;8179;59.364;18.018;2023-07-29T06:09:04;994.22;;;933.13;;
16147;SDS011;8179;59.364;18.018;2023-07-29T06:11:30;917.53;;;862.40;;
16147;SDS011;8179;59.364;18.018;2023-07-29T06:13:57;821.95;;;776.75;;
16147;SDS011;8179;59.364;18.018;2023-07-29T06:16:25;1003.55;;;941.58;;
16147;SDS011;8179;59.364;18.018;2023-07-29T06:18:51;739.55;;;702.08;;
16147;SDS011;8179;59.364;18.018;2023-07-29T06:21:18;1056.50;;;987.17;;
16147;SDS011;8179;59.364;18.018;2023-07-29T06:23:45;666.75;;;634.40;;
16147;SDS011;8179;59.364;18.018;2023-07-29T06:26:11;1028.20;;;961.45;;
16147;SDS011;8179;59.364;18.018;2023-07-29T06:28:38;966.65;;;908.30;;
16147;SDS011;8179;59.364;18.018;2023-07-29T06:31:04;931.67;;;874.92;;
16147;SDS011;8179;59.364;18.018;2023-07-29T06:33:32;628.20;;;599.58;;
16147;SDS011;8179;59.364;18.018;2023-07-29T06:35:59;746.40;;;707.53;;
16147;SDS011;8179;59.364;18.018;2023-07-29T06:38:25;811.92;;;767.10;;
16147;SDS011;8179;59.364;18.018;2023-07-29T06:40:52;685.25;;;651.35;;
16147;SDS011;8179;59.364;18.018;2023-07-29T06:43:18;745.17;;;705.00;;
16147;SDS011;8179;59.364;18.018;2023-07-29T06:45:45;772.50;;;729.35;;
16147;SDS011;8179;59.364;18.018;2023-07-29T06:48:11;835.70;;;788.25;;
16147;SDS011;8179;59.364;18.018;2023-07-29T06:50:39;801.38;;;756.47;;
16147;SDS011;8179;59.364;18.018;2023-07-29T06:53:06;759.15;;;717.22;;
16147;SDS011;8179;59.364;18.018;2023-07-29T06:55:32;742.95;;;703.83;;
16147;SDS011;8179;59.364;18.018;2023-07-29T06:57:59;777.42;;;736.28;;
16147;SDS011;8179;59.364;18.018;2023-07-29T07:00:25;978.65;;;917.42;;
16147;SDS011;8179;59.364;18.018;2023-07-29T07:02:52;854.15;;;804.92;;
16147;SDS011;8179;59.364;18.018;2023-07-29T07:05:19;882.60;;;829.92;;
16147;SDS011;8179;59.364;18.018;2023-07-29T07:07:46;844.08;;;795.63;;
16147;SDS011;8179;59.364;18.018;2023-07-29T07:10:13;1170.05;;;999.90;;
16147;SDS011;8179;59.364;18.018;2023-07-29T07:12:40;1296.20;;;999.90;;
16147;SDS011;8179;59.364;18.018;2023-07-29T07:15:07;1351.03;;;999.90;;
16147;SDS011;8179;59.364;18.018;2023-07-29T07:17:34;1249.90;;;999.90;;
16147;SDS011;8179;59.364;18.018;2023-07-29T07:20:00;1273.97;;;999.90;;
16147;SDS011;8179;59.364;18.018;2023-07-29T07:22:27;1171.95;;;999.90;;
16147;SDS011;8179;59.364;18.018;2023-07-29T07:24:54;1229.15;;;999.90;;
16147;SDS011;8179;59.364;18.018;2023-07-29T07:27:21;1087.22;;;999.90;;
16147;SDS011;8179;59.364;18.018;2023-07-29T07:29:48;1060.00;;;988.63;;
16147;SDS011;8179;59.364;18.018;2023-07-29T07:32:15;1060.97;;;993.17;;
16147;SDS011;8179;59.364;18.018;2023-07-29T07:34:41;1141.60;;;999.90;;
16147;SDS011;8179;59.364;18.018;2023-07-29T07:37:08;1118.28;;;999.90;;
16147;SDS011;8179;59.364;18.018;2023-07-29T07:39:34;1146.55;;;999.90;;
16147;SDS011;8179;59.364;18.018;2023-07-29T07:42:02;1138.35;;;999.90;;
16147;SDS011;8179;59.364;18.018;2023-07-29T07:44:29;1582.53;;;999.90;;
16147;SDS011;8179;59.364;18.018;2023-07-29T07:46:55;1206.95;;;999.90;;
16147;SDS011;8179;59.364;18.018;2023-07-29T07:49:24;1194.82;;;999.90;;
16147;SDS011;8179;59.364;18.018;2023-07-29T07:51:51;1403.00;;;999.90;;
16147;SDS011;8179;59.364;18.018;2023-07-29T07:54:17;1154.47;;;999.90;;
16147;SDS011;8179;59.364;18.018;2023-07-29T07:56:44;1172.68;;;999.90;;
16147;SDS011;8179;59.364;18.018;2023-07-29T07:59:12;1188.15;;;999.90;;
16147;SDS011;8179;59.364;18.018;2023-07-29T08:01:39;1234.65;;;999.90;;
16147;SDS011;8179;59.364;18.018;2023-07-29T08:04:05;1171.97;;;999.90;;
16147;SDS011;8179;59.364;18.018;2023-07-29T08:06:32;1203.05;;;999.90;;
16147;SDS011;8179;59.364;18.018;2023-07-29T08:08:59;1123.47;;;999.90;;
16147;SDS011;8179;59.364;18.018;2023-07-29T08:11:25;1138.15;;;999.90;;
16147;SDS011;8179;59.364;18.018;2023-07-29T08:13:52;989.40;;;927.20;;
16147;SDS011;8179;59.364;18.018;2023-07-29T08:16:20;1056.53;;;983.42;;
16147;SDS011;8179;59.364;18.018;2023-07-29T08:18:49;1121.53;;;999.90;;
16147;SDS011;8179;59.364;18.018;2023-07-29T08:21:15;1189.40;;;999.90;;
16147;SDS011;8179;59.364;18.018;2023-07-29T08:23:42;1046.53;;;975.78;;
16147;SDS011;8179;59.364;18.018;2023-07-29T08:26:08;1148.43;;;999.90;;
16147;SDS011;8179;59.364;18.018;2023-07-29T08:28:35;1086.35;;;998.78;;
16147;SDS011;8179;59.364;18.018;2023-07-29T08:31:02;1081.90;;;995.15;;
16147;SDS011;8179;59.364;18.018;2023-07-29T08:33:30;866.65;;;812.92;;
16147;SDS011;8179;59.364;18.018;2023-07-29T08:35:58;994.85;;;931.03;;
16147;SDS011;8179;59.364;18.018;2023-07-29T08:38:25;902.97;;;851.03;;
16147;SDS011;8179;59.364;18.018;2023-07-29T08:40:53;948.25;;;891.55;;
16147;SDS011;8179;59.364;18.018;2023-07-29T08:43:24;895.38;;;843.17;;
16147;SDS011;8179;59.364;18.018;2023-07-29T08:45:53;928.08;;;873.10;;
16147;SDS011;8179;59.364;18.018;2023-07-29T08:48:22;902.00;;;846.35;;
16147;SDS011;8179;59.364;18.018;2023-07-29T08:50:52;873.25;;;823.88;;
16147;SDS011;8179;59.364;18.018;2023-07-29T08:53:18;791.67;;;748.78;;
16147;SDS011;8179;59.364;18.018;2023-07-29T08:55:45;888.78;;;837.17;;
16147;SDS011;8179;59.364;18.018;2023-07-29T08:58:12;923.50;;;868.63;;
16147;SDS011;8179;59.364;18.018;2023-07-29T09:00:38;877.13;;;828.08;;
16147;SDS011;8179;59.364;18.018;2023-07-29T09:03:08;821.22;;;776.63;;
16147;SDS011;8179;59.364;18.018;2023-07-29T09:05:35;724.92;;;688.03;;
16147;SDS011;8179;59.364;18.018;2023-07-29T09:08:03;947.03;;;889.55;;
16147;SDS011;8179;59.364;18.018;2023-07-29T09:10:30;763.15;;;720.33;;
16147;SDS011;8179;59.364;18.018;2023-07-29T09:13:01;655.67;;;625.03;;
16147;SDS011;8179;59.364;18.018;2023-07-29T09:15:28;660.80;;;630.17;;
16147;SDS011;8179;59.364;18.018;2023-07-29T09:17:55;599.53;;;571.95;;
16147;SDS011;8179;59.364;18.018;2023-07-29T09:20:25;610.30;;;583.60;;
16147;SDS011;8179;59.364;18.018;2023-07-29T09:22:53;675.95;;;643.63;;
16147;SDS011;8179;59.364;18.018;2023-07-29T09:25:23;671.28;;;639.88;;
16147;SDS011;8179;59.364;18.018;2023-07-29T09:27:50;570.83;;;546.90;;
16147;SDS011;8179;59.364;18.018;2023-07-29T09:30:17;560.20;;;538.15;;
16147;SDS011;8179;59.364;18.018;2023-07-29T09:32:43;519.25;;;498.90;;
16147;SDS011;8179;59.364;18.018;2023-07-29T09:35:10;624.03;;;596.65;;
16147;SDS011;8179;59.364;18.018;2023-07-29T09:37:37;620.53;;;592.53;;
16147;SDS011;8179;59.364;18.018;2023-07-29T09:40:04;570.42;;;547.53;;
16147;SDS011;8179;59.364;18.018;2023-07-29T09:42:33;603.47;;;578.10;;
16147;SDS011;8179;59.364;18.018;2023-07-29T09:44:59;567.50;;;545.13;;
16147;SDS011;8179;59.364;18.018;2023-07-29T09:47:26;593.80;;;569.55;;
16147;SDS011;8179;59.364;18.018;2023-07-29T09:49:52;564.15;;;540.85;;
16147;SDS011;8179;59.364;18.018;2023-07-29T09:52:20;698.92;;;666.95;;
16147;SDS011;8179;59.364;18.018;2023-07-29T09:54:48;762.90;;;725.08;;
16147;SDS011;8179;59.364;18.018;2023-07-29T09:57:15;752.03;;;716.78;;
16147;SDS011;8179;59.364;18.018;2023-07-29T09:59:44;709.90;;;677.03;;
16147;SDS011;8179;59.364;18.018;2023-07-29T10:02:19;740.05;;;705.05;;
16147;SDS011;8179;59.364;18.018;2023-07-29T10:04:46;734.75;;;699.92;;
16147;SDS011;8179;59.364;18.018;2023-07-29T10:07:13;635.53;;;608.17;;
16147;SDS011;8179;59.364;18.018;2023-07-29T10:09:40;601.78;;;576.90;;
16147;SDS011;8179;59.364;18.018;2023-07-29T10:12:08;719.42;;;684.78;;
16147;SDS011;8179;59.364;18.018;2023-07-29T10:14:36;662.45;;;633.35;;
16147;SDS011;8179;59.364;18.018;2023-07-29T10:17:05;740.47;;;704.47;;
16147;SDS011;8179;59.364;18.018;2023-07-29T10:19:31;807.20;;;764.13;;
16147;SDS011;8179;59.364;18.018;2023-07-29T10:21:59;671.92;;;642.10;;
16147;SDS011;8179;59.364;18.018;2023-07-29T10:24:27;707.92;;;675.45;;
16147;SDS011;8179;59.364;18.018;2023-07-29T10:26:57;739.05;;;703.30;;
16147;SDS011;8179;59.364;18.018;2023-07-29T10:29:24;755.83;;;719.05;;
16147;SDS011;8179;59.364;18.018;2023-07-29T10:31:51;657.15;;;628.08;;
16147;SDS011;8179;59.364;18.018;2023-07-29T10:34:20;676.75;;;646.08;;
16147;SDS011;8179;59.364;18.018;2023-07-29T10:36:48;688.08;;;656.30;;
16147;SDS011;8179;59.364;18.018;2023-07-29T10:39:15;827.60;;;783.88;;
16147;SDS011;8179;59.364;18.018;2023-07-29T10:41:54;634.75;;;607.78;;
16147;SDS011;8179;59.364;18.018;2023-07-29T10:47:10;716.28;;;683.03;;
16147;SDS011;8179;59.364;18.018;2023-07-29T10:49:39;666.65;;;636.78;;
16147;SDS011;8179;59.364;18.018;2023-07-29T10:52:06;657.05;;;628.05;;
16147;SDS011;8179;59.364;18.018;2023-07-29T10:54:34;730.65;;;695.72;;
16147;SDS011;8179;59.364;18.018;2023-07-29T10:57:07;730.28;;;695.95;;
16147;SDS011;8179;59.364;18.018;2023-07-29T10:59:34;748.47;;;712.30;;
16147;SDS011;8179;59.364;18.018;2023-07-29T11:02:00;791.17;;;750.92;;
16147;SDS011;8179;59.364;18.018;2023-07-29T11:04:27;802.90;;;762.15;;
16147;SDS011;8179;59.364;18.018;2023-07-29T11:09:53;855.53;;;810.45;;
16147;SDS011;8179;59.364;18.018;2023-07-29T11:15:17;791.53;;;751.20;;
16147;SDS011;8179;59.364;18.018;2023-07-29T11:17:44;859.03;;;813.53;;
16147;SDS011;8179;59.364;18.018;2023-07-29T11:20:12;872.13;;;824.92;;
16147;SDS011;8179;59.364;18.018;2023-07-29T11:22:39;865.78;;;819.65;;
16147;SDS011;8179;59.364;18.018;2023-07-29T11:25:08;832.92;;;789.53;;
16147;SDS011;8179;59.364;18.018;2023-07-29T11:27:35;804.03;;;763.33;;
16147;SDS011;8179;59.364;18.018;2023-07-29T11:30:02;856.25;;;810.40;;
16147;SDS011;8179;59.364;18.018;2023-07-29T11:32:30;882.33;;;835.22;;
16147;SDS011;8179;59.364;18.018;2023-07-29T11:34:57;913.75;;;863.17;;
16147;SDS011;8179;59.364;18.018;2023-07-29T11:37:23;866.92;;;820.78;;
16147;SDS011;8179;59.364;18.018;2023-07-29T11:39:50;923.53;;;872.47;;
16147;SDS011;8179;59.364;18.018;2023-07-29T11:42:18;867.20;;;820.13;;
16147;SDS011;8179;59.364;18.018;2023-07-29T11:44:45;853.25;;;808.28;;
16147;SDS011;8179;59.364;18.018;2023-07-29T11:47:12;849.03;;;803.80;;
16147;SDS011;8179;59.364;18.018;2023-07-29T11:49:39;876.58;;;829.72;;
16147;SDS011;8179;59.364;18.018;2023-07-29T11:52:06;812.95;;;771.05;;
16147;SDS011;8179;59.364;18.018;2023-07-29T11:54:33;890.38;;;841.72;;
16147;SDS011;8179;59.364;18.018;2023-07-29T11:56:59;811.38;;;769.55;;
16147;SDS011;8179;59.364;18.018;2023-07-29T11:59:28;891.70;;;842.58;;
16147;SDS011;8179;59.364;18.018;2023-07-29T12:01:55;890.45;;;841.80;;
16147;SDS011;8179;59.364;18.018;2023-07-29T12:04:22;839.83;;;795.58;;
16147;SDS011;8179;59.364;18.018;2023-07-29T12:06:49;839.22;;;794.53;;
16147;SDS011;8179;59.364;18.018;2023-07-29T12:09:16;873.20;;;826.00;;
16147;SDS011;8179;59.364;18.018;2023-07-29T12:11:43;828.00;;;785.13;;
16147;SDS011;8179;59.364;18.018;2023-07-29T12:14:11;903.95;;;853.80;;
16147;SDS011;8179;59.364;18.018;2023-07-29T12:16:42;929.80;;;876.58;;
16147;SDS011;8179;59.364;18.018;2023-07-29T12:19:11;913.10;;;859.05;;
16147;SDS011;8179;59.364;18.018;2023-07-29T12:21:38;876.17;;;828.33;;
16147;SDS011;8179;59.364;18.018;2023-07-29T12:24:05;882.97;;;835.33;;
16147;SDS011;8179;59.364;18.018;2023-07-29T12:26:31;886.33;;;834.80;;
16147;SDS011;8179;59.364;18.018;2023-07-29T12:29:10;892.42;;;843.92;;
16147;SDS011;8179;59.364;18.018;2023-07-29T12:31:37;754.13;;;717.50;;
16147;SDS011;8179;59.364;18.018;2023-07-29T12:34:05;875.22;;;826.78;;
16147;SDS011;8179;59.364;18.018;2023-07-29T12:36:41;802.78;;;761.67;;
16147;SDS011;8179;59.364;18.018;2023-07-29T12:39:15;1418.45;;;896.58;;
16147;SDS011;8179;59.364;18.018;2023-07-29T12:41:41;909.08;;;858.25;;
16147;SDS011;8179;59.364;18.018;2023-07-29T12:44:08;867.72;;;821.10;;
16147;SDS011;8179;59.364;18.018;2023-07-29T12:46:34;732.00;;;696.50;;
16147;SDS011;8179;59.364;18.018;2023-07-29T12:49:01;1713.60;;;952.30;;
16147;SDS011;8179;59.364;18.018;2023-07-29T12:51:29;909.75;;;859.10;;
16147;SDS011;8179;59.364;18.018;2023-07-29T12:53:55;1189.97;;;900.17;;
16147;SDS011;8179;59.364;18.018;2023-07-29T12:56:24;867.50;;;820.67;;
16147;SDS011;8179;59.364;18.018;2023-07-29T12:58:51;826.05;;;783.40;;
16147;SDS011;8179;59.364;18.018;2023-07-29T13:01:18;886.60;;;837.13;;
16147;SDS011;8179;59.364;18.018;2023-07-29T13:03:45;847.50;;;802.80;;
16147;SDS011;8179;59.364;18.018;2023-07-29T13:06:11;860.88;;;814.03;;
16147;SDS011;8179;59.364;18.018;2023-07-29T13:08:39;1999.90;;;999.90;;
16147;SDS011;8179;59.364;18.018;2023-07-29T13:11:06;1999.90;;;999.90;;
16147;SDS011;8179;59.364;18.018;2023-07-29T13:13:33;1692.60;;;932.97;;
16147;SDS011;8179;59.364;18.018;2023-07-29T13:15:59;1415.40;;;892.83;;
16147;SDS011;8179;59.364;18.018;2023-07-29T13:18:26;1999.90;;;999.90;;
16147;SDS011;8179;59.364;18.018;2023-07-29T13:20:53;1999.90;;;999.90;;
16147;SDS011;8179;59.364;18.018;2023-07-29T13:23:20;1999.90;;;999.90;;
16147;SDS011;8179;59.364;18.018;2023-07-29T13:25:48;1999.90;;;999.90;;
16147;SDS011;8179;59.364;18.018;2023-07-29T13:28:15;1999.90;;;999.90;;
16147;SDS011;8179;59.364;18.018;2023-07-29T13:30:42;1999.90;;;999.90;;
16147;SDS011;8179;59.364;18.018;2023-07-29T13:33:09;1999.90;;;999.90;;
16147;SDS011;8179;59.364;18.018;2023-07-29T13:35:35;1999.90;;;999.90;;
16147;SDS011;8179;59.364;18.018;2023-07-29T13:38:04;1999.90;;;999.90;;
16147;SDS011;8179;59.364;18.018;2023-07-29T13:40:31;1999.90;;;999.90;;
16147;SDS011;8179;59.364;18.018;2023-07-29T13:42:59;1999.90;;;999.90;;
16147;SDS011;8179;59.364;18.018;2023-07-29T13:45:25;1999.90;;;999.90;;
16147;SDS011;8179;59.364;18.018;2023-07-29T13:47:52;1999.90;;;999.90;;
16147;SDS011;8179;59.364;18.018;2023-07-29T13:50:19;1999.90;;;999.90;;
16147;SDS011;8179;59.364;18.018;2023-07-29T13:52:46;1999.90;;;999.90;;
16147;SDS011;8179;59.364;18.018;2023-07-29T13:55:12;1716.38;;;954.72;;
16147;SDS011;8179;59.364;18.018;2023-07-29T13:57:42;1999.90;;;999.90;;
16147;SDS011;8179;59.364;18.018;2023-07-29T14:00:14;1480.20;;;950.00;;
16147;SDS011;8179;59.364;18.018;2023-07-29T14:02:41;884.08;;;835.65;;